DLH3PJ EDDH-EDDF
Flight info
| Callsign | DLH3PJ |
|---|---|
| Flight time | 0h 48m |
| Altitude | 31000 |
| Route | AMLUH2C/05 AMLUH M852 DENIX DCT RIMET/N0454F310 T157 KOKEB/N0412F230 T157 KERAX KERAX5A |
| Aircraft | A320/M-V/N |
Departure
| Time | 2026-05-06 14:49 |
|---|---|
| Airport | Hamburg Helmut Schmidt Airport (EDDH) |
Arrival
| Time | 2026-05-06 15:38 |
|---|---|
| Airport | Frankfurt Main Airport (EDDF) |
| Time | Latitude | Longitude | Altitude | Speed | Heading |
|---|---|---|---|---|---|
| 2026-05-06 14:02 | 53.63113 | 10.00368 | 47 ft | 0 kts | 86° |
| 2026-05-06 14:28 | 53.63112 | 10.00338 | 45 ft | 4 kts | 90° |
| 2026-05-06 14:28 | 53.63113 | 10.00293 | 46 ft | 4 kts | 98° |
| 2026-05-06 14:28 | 53.63118 | 10.00249 | 49 ft | 4 kts | 108° |
| 2026-05-06 14:29 | 53.63129 | 10.00208 | 48 ft | 4 kts | 130° |
| 2026-05-06 14:29 | 53.63145 | 10.00188 | 49 ft | 0 kts | 176° |
| 2026-05-06 14:32 | 53.63143 | 10.00188 | 48 ft | 1 kts | 175° |
| 2026-05-06 14:32 | 53.63114 | 10.00192 | 49 ft | 6 kts | 175° |
| 2026-05-06 14:32 | 53.63076 | 10.00185 | 51 ft | 5 kts | 200° |
| 2026-05-06 14:33 | 53.63050 | 10.00161 | 51 ft | 4 kts | 211° |
| 2026-05-06 14:33 | 53.63017 | 10.00128 | 51 ft | 8 kts | 211° |
| 2026-05-06 14:33 | 53.62977 | 10.00085 | 48 ft | 6 kts | 212° |
| 2026-05-06 14:33 | 53.62948 | 10.00054 | 50 ft | 0 kts | 216° |
| 2026-05-06 14:41 | 53.62944 | 10.00049 | 50 ft | 1 kts | 216° |
| 2026-05-06 14:41 | 53.62940 | 10.00044 | 50 ft | 0 kts | 219° |
| 2026-05-06 14:41 | 53.62935 | 10.00034 | 50 ft | 3 kts | 229° |
| 2026-05-06 14:42 | 53.62923 | 10.00000 | 50 ft | 3 kts | 239° |
| 2026-05-06 14:42 | 53.62915 | 9.99976 | 50 ft | 2 kts | 243° |
| 2026-05-06 14:42 | 53.62911 | 9.99960 | 50 ft | 1 kts | 243° |
| 2026-05-06 14:42 | 53.62908 | 9.99952 | 50 ft | 2 kts | 242° |
| 2026-05-06 14:43 | 53.62900 | 9.99927 | 49 ft | 2 kts | 243° |
| 2026-05-06 14:43 | 53.62899 | 9.99921 | 50 ft | 0 kts | 243° |
| 2026-05-06 14:46 | 53.62892 | 9.99900 | 50 ft | 6 kts | 243° |
| 2026-05-06 14:46 | 53.62870 | 9.99824 | 49 ft | 7 kts | 245° |
| 2026-05-06 14:47 | 53.62871 | 9.99747 | 46 ft | 6 kts | 309° |
| 2026-05-06 14:47 | 53.62896 | 9.99720 | 49 ft | 0 kts | 332° |
| 2026-05-06 14:48 | 53.62897 | 9.99719 | 49 ft | 2 kts | 332° |
| 2026-05-06 14:49 | 53.63082 | 9.99559 | 49 ft | 66 kts | 332° |
| 2026-05-06 14:49 | 53.63684 | 9.99040 | 50 ft | 126 kts | 333° |
| 2026-05-06 14:49 | 53.64590 | 9.98252 | 135 ft | 163 kts | 335° |
| 2026-05-06 14:49 | 53.65579 | 9.97397 | 948 ft | 158 kts | 338° |
| 2026-05-06 14:50 | 53.66574 | 9.96551 | 1628 ft | 166 kts | 339° |
| 2026-05-06 14:50 | 53.67676 | 9.95619 | 2018 ft | 188 kts | 338° |
| 2026-05-06 14:50 | 53.68948 | 9.94752 | 2367 ft | 203 kts | 355° |
| 2026-05-06 14:50 | 53.70365 | 9.94677 | 2900 ft | 206 kts | 5° |
| 2026-05-06 14:51 | 53.71808 | 9.94760 | 3547 ft | 208 kts | 16° |
| 2026-05-06 14:51 | 53.73013 | 9.95958 | 4320 ft | 204 kts | 54° |
| 2026-05-06 14:51 | 53.73569 | 9.98156 | 5126 ft | 208 kts | 75° |
| 2026-05-06 14:51 | 53.73935 | 10.00556 | 5962 ft | 213 kts | 76° |
| 2026-05-06 14:52 | 53.74049 | 10.03090 | 6597 ft | 227 kts | 98° |
| 2026-05-06 14:52 | 53.73353 | 10.05617 | 7021 ft | 256 kts | 131° |
| 2026-05-06 14:52 | 53.71759 | 10.07154 | 7613 ft | 277 kts | 167° |
| 2026-05-06 14:52 | 53.69824 | 10.07529 | 8492 ft | 284 kts | 175° |
| 2026-05-06 14:53 | 53.67836 | 10.07669 | 9424 ft | 288 kts | 178° |
| 2026-05-06 14:53 | 53.65815 | 10.07730 | 10194 ft | 297 kts | 178° |
| 2026-05-06 14:53 | 53.63675 | 10.07788 | 10475 ft | 320 kts | 178° |
| 2026-05-06 14:53 | 53.61364 | 10.07869 | 10695 ft | 342 kts | 177° |
| 2026-05-06 14:54 | 53.58978 | 10.07980 | 11242 ft | 351 kts | 177° |
| 2026-05-06 14:54 | 53.56497 | 10.08118 | 11996 ft | 353 kts | 177° |
| 2026-05-06 14:54 | 53.54035 | 10.08273 | 12789 ft | 355 kts | 177° |
| 2026-05-06 14:54 | 53.51555 | 10.08441 | 13550 ft | 357 kts | 177° |
| 2026-05-06 14:55 | 53.49094 | 10.08609 | 14200 ft | 360 kts | 177° |
| 2026-05-06 14:55 | 53.46583 | 10.08775 | 14825 ft | 363 kts | 178° |
| 2026-05-06 14:55 | 53.44045 | 10.08939 | 15428 ft | 366 kts | 178° |
| 2026-05-06 14:55 | 53.41488 | 10.09105 | 16048 ft | 369 kts | 178° |
| 2026-05-06 14:56 | 53.38904 | 10.09274 | 16653 ft | 372 kts | 179° |
| 2026-05-06 14:56 | 53.36305 | 10.09440 | 17241 ft | 375 kts | 179° |
| 2026-05-06 14:56 | 53.33650 | 10.09610 | 17845 ft | 378 kts | 179° |
| 2026-05-06 14:56 | 53.31005 | 10.09783 | 18377 ft | 381 kts | 179° |
| 2026-05-06 14:57 | 53.28378 | 10.09953 | 18870 ft | 384 kts | 179° |
| 2026-05-06 14:57 | 53.25694 | 10.10124 | 19348 ft | 388 kts | 179° |
| 2026-05-06 14:57 | 53.22984 | 10.10295 | 19824 ft | 391 kts | 179° |
| 2026-05-06 14:57 | 53.20253 | 10.10466 | 20288 ft | 394 kts | 179° |
| 2026-05-06 14:58 | 53.17501 | 10.10642 | 20759 ft | 397 kts | 179° |
| 2026-05-06 14:58 | 53.14731 | 10.10820 | 21215 ft | 400 kts | 178° |
| 2026-05-06 14:58 | 53.11936 | 10.11001 | 21690 ft | 403 kts | 178° |
| 2026-05-06 14:58 | 53.09124 | 10.11182 | 22153 ft | 406 kts | 178° |
| 2026-05-06 14:59 | 53.06291 | 10.11361 | 22601 ft | 408 kts | 178° |
| 2026-05-06 14:59 | 53.03443 | 10.11539 | 23041 ft | 411 kts | 178° |
| 2026-05-06 14:59 | 53.00570 | 10.11718 | 23464 ft | 414 kts | 178° |
| 2026-05-06 14:59 | 52.97685 | 10.11904 | 23819 ft | 416 kts | 178° |
| 2026-05-06 15:00 | 52.94781 | 10.12094 | 24201 ft | 418 kts | 178° |
| 2026-05-06 15:00 | 52.91873 | 10.12282 | 24553 ft | 420 kts | 178° |
| 2026-05-06 15:00 | 52.88964 | 10.12469 | 25158 ft | 414 kts | 178° |
| 2026-05-06 15:00 | 52.86096 | 10.12652 | 25770 ft | 411 kts | 178° |
| 2026-05-06 15:01 | 52.83271 | 10.12829 | 26208 ft | 412 kts | 178° |
| 2026-05-06 15:01 | 52.80407 | 10.13010 | 26598 ft | 414 kts | 178° |
| 2026-05-06 15:01 | 52.77517 | 10.13191 | 26907 ft | 418 kts | 178° |
| 2026-05-06 15:01 | 52.74586 | 10.13374 | 27038 ft | 425 kts | 178° |
| 2026-05-06 15:02 | 52.71597 | 10.13561 | 27171 ft | 432 kts | 178° |
| 2026-05-06 15:02 | 52.68578 | 10.13748 | 27411 ft | 436 kts | 178° |
| 2026-05-06 15:02 | 52.65533 | 10.13938 | 27691 ft | 439 kts | 178° |
| 2026-05-06 15:02 | 52.62473 | 10.14130 | 27978 ft | 441 kts | 178° |
| 2026-05-06 15:03 | 52.59399 | 10.14320 | 28262 ft | 443 kts | 178° |
| 2026-05-06 15:03 | 52.56305 | 10.14512 | 28567 ft | 445 kts | 179° |
| 2026-05-06 15:03 | 52.54256 | 10.14638 | 28776 ft | 446 kts | 179° |
| 2026-05-06 15:03 | 52.51161 | 10.14826 | 29239 ft | 444 kts | 179° |
| 2026-05-06 15:04 | 52.48074 | 10.15010 | 29706 ft | 443 kts | 179° |
| 2026-05-06 15:04 | 52.45002 | 10.15195 | 30132 ft | 441 kts | 179° |
| 2026-05-06 15:04 | 52.41943 | 10.15385 | 30510 ft | 439 kts | 179° |
| 2026-05-06 15:04 | 52.38888 | 10.15578 | 30773 ft | 438 kts | 180° |
| 2026-05-06 15:05 | 52.35844 | 10.15768 | 30816 ft | 437 kts | 180° |
| 2026-05-06 15:05 | 52.29778 | 10.16139 | 30816 ft | 436 kts | 180° |
| 2026-05-06 15:06 | 52.23719 | 10.16513 | 30803 ft | 435 kts | 180° |
| 2026-05-06 15:06 | 52.17679 | 10.16884 | 30811 ft | 434 kts | 180° |
| 2026-05-06 15:07 | 52.11640 | 10.17259 | 30806 ft | 433 kts | 180° |
| 2026-05-06 15:07 | 52.05617 | 10.17626 | 30792 ft | 430 kts | 180° |
| 2026-05-06 15:07 | 52.02667 | 10.17806 | 30731 ft | 418 kts | 180° |
| 2026-05-06 15:08 | 51.99786 | 10.17981 | 30515 ft | 413 kts | 180° |
| 2026-05-06 15:08 | 51.96922 | 10.18154 | 30278 ft | 410 kts | 180° |
| 2026-05-06 15:08 | 51.94064 | 10.18326 | 30031 ft | 409 kts | 180° |
| 2026-05-06 15:08 | 51.91217 | 10.18498 | 29774 ft | 409 kts | 180° |
| 2026-05-06 15:09 | 51.88370 | 10.18671 | 29480 ft | 409 kts | 180° |
| 2026-05-06 15:09 | 51.85527 | 10.18844 | 29192 ft | 409 kts | 180° |
| 2026-05-06 15:09 | 51.82719 | 10.19011 | 28905 ft | 409 kts | 180° |
| 2026-05-06 15:09 | 51.79869 | 10.19179 | 28624 ft | 409 kts | 180° |
| 2026-05-06 15:10 | 51.77022 | 10.19347 | 28338 ft | 410 kts | 181° |
| 2026-05-06 15:10 | 51.74174 | 10.19515 | 28063 ft | 410 kts | 181° |
| 2026-05-06 15:10 | 51.71312 | 10.19687 | 27816 ft | 410 kts | 181° |
| 2026-05-06 15:10 | 51.68465 | 10.19861 | 27776 ft | 410 kts | 181° |
| 2026-05-06 15:11 | 51.65611 | 10.20035 | 27790 ft | 410 kts | 181° |
| 2026-05-06 15:11 | 51.62786 | 10.19711 | 27784 ft | 405 kts | 195° |
| 2026-05-06 15:11 | 51.60100 | 10.18387 | 27784 ft | 404 kts | 200° |
| 2026-05-06 15:11 | 51.57440 | 10.16937 | 27785 ft | 404 kts | 200° |
| 2026-05-06 15:12 | 51.54780 | 10.15470 | 27785 ft | 404 kts | 200° |
| 2026-05-06 15:12 | 51.52119 | 10.14004 | 27778 ft | 404 kts | 200° |
| 2026-05-06 15:12 | 51.49453 | 10.12541 | 27784 ft | 404 kts | 200° |
| 2026-05-06 15:12 | 51.46794 | 10.11086 | 27785 ft | 404 kts | 200° |
| 2026-05-06 15:13 | 51.44133 | 10.09631 | 27777 ft | 404 kts | 200° |
| 2026-05-06 15:13 | 51.41468 | 10.08175 | 27781 ft | 404 kts | 200° |
| 2026-05-06 15:13 | 51.38809 | 10.06721 | 27778 ft | 404 kts | 200° |
| 2026-05-06 15:13 | 51.36144 | 10.05267 | 27780 ft | 405 kts | 200° |
| 2026-05-06 15:14 | 51.33467 | 10.03842 | 27780 ft | 405 kts | 200° |
| 2026-05-06 15:14 | 51.30785 | 10.02450 | 27777 ft | 405 kts | 199° |
| 2026-05-06 15:14 | 51.28103 | 10.01081 | 27781 ft | 406 kts | 199° |
| 2026-05-06 15:14 | 51.25407 | 9.99713 | 27779 ft | 406 kts | 199° |
| 2026-05-06 15:15 | 51.22714 | 9.98344 | 27780 ft | 406 kts | 199° |
| 2026-05-06 15:15 | 51.20055 | 9.96985 | 27779 ft | 406 kts | 199° |
| 2026-05-06 15:15 | 51.17361 | 9.95599 | 27779 ft | 406 kts | 200° |
| 2026-05-06 15:15 | 51.14669 | 9.94211 | 27775 ft | 407 kts | 199° |
| 2026-05-06 15:16 | 51.11979 | 9.92823 | 27772 ft | 407 kts | 199° |
| 2026-05-06 15:16 | 51.09284 | 9.91434 | 27766 ft | 408 kts | 199° |
| 2026-05-06 15:16 | 51.06583 | 9.90047 | 27423 ft | 409 kts | 199° |
| 2026-05-06 15:16 | 51.03843 | 9.88644 | 25865 ft | 422 kts | 199° |
| 2026-05-06 15:17 | 51.00978 | 9.87179 | 24222 ft | 440 kts | 200° |
| 2026-05-06 15:17 | 50.98048 | 9.85686 | 23243 ft | 442 kts | 200° |
| 2026-05-06 15:17 | 50.95134 | 9.84209 | 22379 ft | 437 kts | 199° |
| 2026-05-06 15:17 | 50.92264 | 9.82754 | 21553 ft | 432 kts | 199° |
| 2026-05-06 15:18 | 50.89402 | 9.81302 | 20786 ft | 428 kts | 199° |
| 2026-05-06 15:18 | 50.86579 | 9.79866 | 20047 ft | 424 kts | 199° |
| 2026-05-06 15:18 | 50.83791 | 9.78431 | 19341 ft | 420 kts | 199° |
| 2026-05-06 15:18 | 50.81024 | 9.76994 | 18647 ft | 416 kts | 199° |
| 2026-05-06 15:19 | 50.78283 | 9.75565 | 17969 ft | 413 kts | 199° |
| 2026-05-06 15:19 | 50.75567 | 9.74150 | 17209 ft | 409 kts | 199° |
| 2026-05-06 15:19 | 50.72875 | 9.72748 | 16559 ft | 404 kts | 199° |
| 2026-05-06 15:19 | 50.70229 | 9.71371 | 16043 ft | 396 kts | 199° |
| 2026-05-06 15:20 | 50.67629 | 9.70025 | 15524 ft | 390 kts | 199° |
| 2026-05-06 15:20 | 50.65063 | 9.68698 | 14986 ft | 385 kts | 199° |
| 2026-05-06 15:20 | 50.62541 | 9.67393 | 14458 ft | 380 kts | 199° |
| 2026-05-06 15:20 | 50.60058 | 9.66014 | 13896 ft | 377 kts | 201° |
| 2026-05-06 15:21 | 50.57615 | 9.64540 | 13288 ft | 375 kts | 202° |
| 2026-05-06 15:21 | 50.55200 | 9.63024 | 12683 ft | 371 kts | 202° |
| 2026-05-06 15:21 | 50.52814 | 9.61511 | 12059 ft | 369 kts | 203° |
| 2026-05-06 15:21 | 50.50523 | 9.59775 | 11437 ft | 364 kts | 213° |
| 2026-05-06 15:22 | 50.48564 | 9.57286 | 10825 ft | 361 kts | 226° |
| 2026-05-06 15:22 | 50.47086 | 9.54214 | 10447 ft | 354 kts | 239° |
| 2026-05-06 15:22 | 50.46099 | 9.50698 | 10204 ft | 353 kts | 251° |
| 2026-05-06 15:22 | 50.45402 | 9.47020 | 9962 ft | 352 kts | 252° |
| 2026-05-06 15:23 | 50.44713 | 9.43377 | 9723 ft | 341 kts | 252° |
| 2026-05-06 15:23 | 50.44052 | 9.39893 | 9588 ft | 325 kts | 252° |
| 2026-05-06 15:23 | 50.43420 | 9.36567 | 9454 ft | 312 kts | 252° |
| 2026-05-06 15:23 | 50.42812 | 9.33369 | 9318 ft | 299 kts | 252° |
| 2026-05-06 15:24 | 50.42227 | 9.30303 | 9186 ft | 288 kts | 252° |
| 2026-05-06 15:24 | 50.41662 | 9.27349 | 9056 ft | 278 kts | 252° |
| 2026-05-06 15:24 | 50.41104 | 9.24472 | 8924 ft | 274 kts | 251° |
| 2026-05-06 15:24 | 50.40493 | 9.21647 | 8801 ft | 273 kts | 249° |
| 2026-05-06 15:25 | 50.39840 | 9.18850 | 8654 ft | 272 kts | 248° |
| 2026-05-06 15:25 | 50.39178 | 9.16076 | 8534 ft | 272 kts | 248° |
| 2026-05-06 15:25 | 50.38519 | 9.13302 | 8399 ft | 271 kts | 249° |
| 2026-05-06 15:25 | 50.37868 | 9.10539 | 8267 ft | 270 kts | 249° |
| 2026-05-06 15:26 | 50.37223 | 9.07783 | 8153 ft | 270 kts | 249° |
| 2026-05-06 15:26 | 50.36577 | 9.05027 | 8022 ft | 269 kts | 249° |
| 2026-05-06 15:26 | 50.35935 | 9.02290 | 7896 ft | 268 kts | 249° |
| 2026-05-06 15:26 | 50.35294 | 8.99550 | 7779 ft | 268 kts | 249° |
| 2026-05-06 15:27 | 50.34653 | 8.96814 | 7642 ft | 266 kts | 249° |
| 2026-05-06 15:27 | 50.34016 | 8.94090 | 7518 ft | 266 kts | 249° |
| 2026-05-06 15:27 | 50.33385 | 8.91407 | 7398 ft | 265 kts | 246° |
| 2026-05-06 15:27 | 50.32408 | 8.89005 | 7249 ft | 263 kts | 225° |
| 2026-05-06 15:28 | 50.31241 | 8.87685 | 7151 ft | 264 kts | 206° |
| 2026-05-06 15:28 | 50.29451 | 8.87012 | 7026 ft | 267 kts | 182° |
| 2026-05-06 15:28 | 50.27626 | 8.87597 | 6903 ft | 272 kts | 157° |
| 2026-05-06 15:28 | 50.26114 | 8.89396 | 6777 ft | 278 kts | 131° |
| 2026-05-06 15:29 | 50.25250 | 8.92090 | 6650 ft | 283 kts | 104° |
| 2026-05-06 15:29 | 50.25212 | 8.95172 | 6525 ft | 286 kts | 84° |
| 2026-05-06 15:29 | 50.25450 | 8.98258 | 6397 ft | 286 kts | 87° |
| 2026-05-06 15:29 | 50.25206 | 9.01294 | 6275 ft | 280 kts | 114° |
| 2026-05-06 15:30 | 50.24135 | 9.03758 | 6136 ft | 273 kts | 142° |
| 2026-05-06 15:30 | 50.22554 | 9.05292 | 5954 ft | 267 kts | 162° |
| 2026-05-06 15:30 | 50.20758 | 9.05870 | 5773 ft | 262 kts | 180° |
| 2026-05-06 15:30 | 50.18931 | 9.06034 | 5598 ft | 264 kts | 177° |
| 2026-05-06 15:31 | 50.17104 | 9.06201 | 5417 ft | 262 kts | 187° |
| 2026-05-06 15:31 | 50.15459 | 9.05191 | 5235 ft | 254 kts | 222° |
| 2026-05-06 15:31 | 50.14585 | 9.02939 | 5091 ft | 242 kts | 258° |
| 2026-05-06 15:32 | 50.14270 | 8.97938 | 5008 ft | 227 kts | 263° |
| 2026-05-06 15:32 | 50.14137 | 8.95498 | 5012 ft | 226 kts | 263° |
| 2026-05-06 15:32 | 50.13919 | 8.93082 | 5016 ft | 225 kts | 254° |
| 2026-05-06 15:32 | 50.13440 | 8.90759 | 5018 ft | 225 kts | 249° |
| 2026-05-06 15:33 | 50.12907 | 8.88503 | 5021 ft | 224 kts | 249° |
| 2026-05-06 15:33 | 50.12370 | 8.86236 | 4972 ft | 220 kts | 249° |
| 2026-05-06 15:33 | 50.11849 | 8.84025 | 4756 ft | 216 kts | 249° |
| 2026-05-06 15:33 | 50.11328 | 8.81816 | 4468 ft | 217 kts | 249° |
| 2026-05-06 15:34 | 50.10808 | 8.79610 | 4160 ft | 216 kts | 249° |
| 2026-05-06 15:34 | 50.10292 | 8.77421 | 3853 ft | 215 kts | 249° |
| 2026-05-06 15:34 | 50.09779 | 8.75252 | 3547 ft | 212 kts | 250° |
| 2026-05-06 15:34 | 50.09272 | 8.73105 | 3250 ft | 208 kts | 249° |
| 2026-05-06 15:35 | 50.08780 | 8.71031 | 2959 ft | 200 kts | 250° |
| 2026-05-06 15:35 | 50.08308 | 8.69040 | 2679 ft | 193 kts | 251° |
| 2026-05-06 15:35 | 50.07890 | 8.67279 | 2455 ft | 184 kts | 250° |
| 2026-05-06 15:35 | 50.07445 | 8.65401 | 2175 ft | 178 kts | 251° |
| 2026-05-06 15:36 | 50.07030 | 8.63657 | 1913 ft | 167 kts | 252° |
| 2026-05-06 15:36 | 50.06636 | 8.62001 | 1689 ft | 159 kts | 251° |
| 2026-05-06 15:36 | 50.06265 | 8.60438 | 1465 ft | 153 kts | 253° |
| 2026-05-06 15:36 | 50.05902 | 8.58917 | 1235 ft | 149 kts | 252° |
| 2026-05-06 15:37 | 50.05546 | 8.57420 | 1023 ft | 146 kts | 251° |
| 2026-05-06 15:37 | 50.05194 | 8.55945 | 791 ft | 142 kts | 250° |
| 2026-05-06 15:37 | 50.04858 | 8.54527 | 581 ft | 140 kts | 251° |
| 2026-05-06 15:37 | 50.04521 | 8.53116 | 371 ft | 137 kts | 251° |
| 2026-05-06 15:38 | 50.04230 | 8.51896 | 354 ft | 95 kts | 249° |
| 2026-05-06 15:38 | 50.04058 | 8.51181 | 353 ft | 46 kts | 250° |
| 2026-05-06 15:38 | 50.03989 | 8.50897 | 359 ft | 20 kts | 250° |
| 2026-05-06 15:38 | 50.03940 | 8.50688 | 354 ft | 20 kts | 248° |
| 2026-05-06 15:39 | 50.03872 | 8.50466 | 354 ft | 26 kts | 240° |
| 2026-05-06 15:39 | 50.03737 | 8.50246 | 350 ft | 26 kts | 219° |
| 2026-05-06 15:39 | 50.03624 | 8.50207 | 354 ft | 10 kts | 135° |
| 2026-05-06 15:39 | 50.03622 | 8.50248 | 352 ft | 6 kts | 76° |
| 2026-05-06 15:40 | 50.03661 | 8.50423 | 354 ft | 24 kts | 69° |
| 2026-05-06 15:40 | 50.03724 | 8.50684 | 358 ft | 25 kts | 69° |
| 2026-05-06 15:40 | 50.03777 | 8.50906 | 352 ft | 20 kts | 69° |
| 2026-05-06 15:40 | 50.03820 | 8.51088 | 354 ft | 19 kts | 70° |
| 2026-05-06 15:41 | 50.03871 | 8.51299 | 359 ft | 19 kts | 69° |
| 2026-05-06 15:41 | 50.03913 | 8.51471 | 359 ft | 15 kts | 70° |
| 2026-05-06 15:41 | 50.03954 | 8.51649 | 360 ft | 21 kts | 70° |
| 2026-05-06 15:41 | 50.04003 | 8.51849 | 354 ft | 18 kts | 69° |
| 2026-05-06 15:42 | 50.04046 | 8.52030 | 355 ft | 21 kts | 70° |
| 2026-05-06 15:42 | 50.04100 | 8.52258 | 356 ft | 24 kts | 69° |
| 2026-05-06 15:42 | 50.04161 | 8.52509 | 360 ft | 26 kts | 69° |
| 2026-05-06 15:42 | 50.04227 | 8.52794 | 355 ft | 28 kts | 69° |
| 2026-05-06 15:43 | 50.04294 | 8.53064 | 359 ft | 26 kts | 70° |
| 2026-05-06 15:43 | 50.04355 | 8.53322 | 351 ft | 25 kts | 69° |
| 2026-05-06 15:43 | 50.04400 | 8.53570 | 360 ft | 23 kts | 83° |
| 2026-05-06 15:43 | 50.04414 | 8.53806 | 356 ft | 21 kts | 84° |
| 2026-05-06 15:44 | 50.04428 | 8.54023 | 360 ft | 19 kts | 84° |
| 2026-05-06 15:44 | 50.04443 | 8.54238 | 360 ft | 20 kts | 84° |
| 2026-05-06 15:44 | 50.04451 | 8.54441 | 351 ft | 18 kts | 93° |
| 2026-05-06 15:44 | 50.04420 | 8.54617 | 357 ft | 16 kts | 118° |
| 2026-05-06 15:45 | 50.04353 | 8.54733 | 355 ft | 10 kts | 142° |
| 2026-05-06 15:45 | 50.04338 | 8.54749 | 355 ft | 0 kts | 147° |
| 2026-05-06 15:46 | 50.04337 | 8.54749 | 355 ft | 0 kts | 147° |
| 2026-05-06 15:46 | 50.04318 | 8.54766 | 354 ft | 6 kts | 153° |
| 2026-05-06 15:46 | 50.04259 | 8.54803 | 353 ft | 12 kts | 160° |
| 2026-05-06 15:47 | 50.04164 | 8.54855 | 357 ft | 17 kts | 160° |
| 2026-05-06 15:47 | 50.04048 | 8.54922 | 353 ft | 18 kts | 160° |
| 2026-05-06 15:47 | 50.03937 | 8.54988 | 354 ft | 14 kts | 159° |
| 2026-05-06 15:47 | 50.03868 | 8.55028 | 361 ft | 10 kts | 159° |
| 2026-05-06 15:48 | 50.03849 | 8.55122 | 351 ft | 9 kts | 76° |
| 2026-05-06 15:48 | 50.03871 | 8.55209 | 360 ft | 10 kts | 69° |
| 2026-05-06 15:48 | 50.03896 | 8.55313 | 356 ft | 9 kts | 70° |
| 2026-05-06 15:48 | 50.03918 | 8.55405 | 356 ft | 10 kts | 69° |
| 2026-05-06 15:49 | 50.03946 | 8.55525 | 356 ft | 15 kts | 69° |
| 2026-05-06 15:49 | 50.03992 | 8.55718 | 352 ft | 20 kts | 70° |
| 2026-05-06 15:49 | 50.04032 | 8.55883 | 358 ft | 12 kts | 70° |
| 2026-05-06 15:49 | 50.04057 | 8.55951 | 355 ft | 6 kts | 46° |
| 2026-05-06 15:50 | 50.04088 | 8.55968 | 354 ft | 3 kts | 3° |
| 2026-05-06 15:50 | 50.04116 | 8.55959 | 357 ft | 8 kts | 343° |
| 2026-05-06 15:50 | 50.04194 | 8.55921 | 353 ft | 13 kts | 356° |
| 2026-05-06 15:50 | 50.04283 | 8.55954 | 353 ft | 13 kts | 358° |
| 2026-05-06 15:51 | 50.04370 | 8.55916 | 359 ft | 13 kts | 343° |
| 2026-05-06 15:51 | 50.04463 | 8.55928 | 354 ft | 14 kts | 15° |
| 2026-05-06 15:51 | 50.04553 | 8.55985 | 357 ft | 15 kts | 43° |
| 2026-05-06 15:51 | 50.04587 | 8.56097 | 358 ft | 10 kts | 72° |
| 2026-05-06 15:52 | 50.04608 | 8.56192 | 356 ft | 9 kts | 70° |
| 2026-05-06 15:52 | 50.04629 | 8.56279 | 356 ft | 8 kts | 69° |
| 2026-05-06 15:52 | 50.04648 | 8.56359 | 357 ft | 8 kts | 70° |
| 2026-05-06 15:52 | 50.04653 | 8.56421 | 351 ft | 5 kts | 97° |
| 2026-05-06 15:53 | 50.04632 | 8.56466 | 362 ft | 0 kts | 144° |
| 2026-05-06 15:53 | 50.04632 | 8.56469 | 362 ft | 0 kts | 127° |
| 2026-05-06 15:53 | 50.04633 | 8.56472 | 362 ft | 0 kts | 104° |
| 2026-05-06 15:53 | 50.04635 | 8.56485 | 354 ft | 3 kts | 73° |
| 2026-05-06 15:54 | 50.04647 | 8.56528 | 359 ft | 5 kts | 66° |
| 2026-05-06 15:54 | 50.04652 | 8.56547 | 355 ft | 0 kts | 69° |
| 2026-05-06 15:54 | 50.04654 | 8.56548 | 355 ft | 0 kts | 49° |
| 2026-05-06 15:55 | 50.04662 | 8.56548 | 355 ft | 4 kts | 11° |
| 2026-05-06 15:55 | 50.04715 | 8.56581 | 354 ft | 12 kts | 41° |
| 2026-05-06 15:55 | 50.04730 | 8.56606 | 359 ft | 2 kts | 47° |
| 2026-05-06 15:55 | 50.04757 | 8.56614 | 357 ft | 6 kts | 340° |
| 2026-05-06 15:56 | 50.04798 | 8.56591 | 359 ft | 1 kts | 340° |
| 2026-05-06 15:56 | 50.04811 | 8.56583 | 352 ft | 2 kts | 339° |
| 2026-05-06 15:56 | 50.04812 | 8.56583 | 352 ft | 0 kts | 339° |